sensor_id;sensor_type;location;lat;lon;timestamp;temperature;humidity
17529;DHT22;8882;53.192;8.184;2023-03-22T05:32:30;9.60;99.90
17529;DHT22;8882;53.192;8.184;2023-03-22T05:34:55;9.50;99.90
17529;DHT22;8882;53.192;8.184;2023-03-22T05:37:21;9.60;99.90
17529;DHT22;8882;53.192;8.184;2023-03-22T05:39:47;9.60;99.90
17529;DHT22;8882;53.192;8.184;2023-03-22T05:42:12;9.60;99.90
17529;DHT22;8882;53.192;8.184;2023-03-22T05:44:37;9.60;99.90
17529;DHT22;8882;53.192;8.184;2023-03-22T05:47:03;9.60;99.90
17529;DHT22;8882;53.192;8.184;2023-03-22T05:49:31;9.60;99.90
17529;DHT22;8882;53.192;8.184;2023-03-22T05:51:57;9.60;99.90
17529;DHT22;8882;53.192;8.184;2023-03-22T05:54:22;9.60;99.90
17529;DHT22;8882;53.192;8.184;2023-03-22T05:56:47;9.70;99.90
17529;DHT22;8882;53.192;8.184;2023-03-22T05:59:13;9.70;99.90
17529;DHT22;8882;53.192;8.184;2023-03-22T06:01:38;9.70;99.90
17529;DHT22;8882;53.192;8.184;2023-03-22T06:04:04;9.80;99.90
17529;DHT22;8882;53.192;8.184;2023-03-22T06:06:30;9.80;99.90
17529;DHT22;8882;53.192;8.184;2023-03-22T06:08:55;9.80;99.90
17529;DHT22;8882;53.192;8.184;2023-03-22T06:11:21;9.90;99.90
17529;DHT22;8882;53.192;8.184;2023-03-22T06:13:47;9.90;99.90
17529;DHT22;8882;53.192;8.184;2023-03-22T06:16:12;9.90;99.90
17529;DHT22;8882;53.192;8.184;2023-03-22T06:18:38;9.90;99.90
17529;DHT22;8882;53.192;8.184;2023-03-22T06:21:04;9.90;99.90
17529;DHT22;8882;53.192;8.184;2023-03-22T06:23:29;9.90;99.90
17529;DHT22;8882;53.192;8.184;2023-03-22T06:25:55;9.90;99.90
17529;DHT22;8882;53.192;8.184;2023-03-22T06:28:20;10.00;99.90
17529;DHT22;8882;53.192;8.184;2023-03-22T06:30:46;10.00;99.90
17529;DHT22;8882;53.192;8.184;2023-03-22T06:33:11;10.00;99.90
17529;DHT22;8882;53.192;8.184;2023-03-22T06:35:37;10.00;99.90
17529;DHT22;8882;53.192;8.184;2023-03-22T06:38:03;10.10;99.90
17529;DHT22;8882;53.192;8.184;2023-03-22T06:40:28;10.10;99.90
17529;DHT22;8882;53.192;8.184;2023-03-22T06:42:54;10.10;99.90
17529;DHT22;8882;53.192;8.184;2023-03-22T06:45:20;10.10;99.90
17529;DHT22;8882;53.192;8.184;2023-03-22T06:47:46;10.10;99.90
17529;DHT22;8882;53.192;8.184;2023-03-22T06:50:12;10.20;99.90
17529;DHT22;8882;53.192;8.184;2023-03-22T06:52:39;10.20;99.90
17529;DHT22;8882;53.192;8.184;2023-03-22T06:55:05;10.20;99.90
17529;DHT22;8882;53.192;8.184;2023-03-22T06:57:30;10.20;99.90
17529;DHT22;8882;53.192;8.184;2023-03-22T06:59:56;10.20;99.90
17529;DHT22;8882;53.192;8.184;2023-03-22T07:02:21;10.20;99.90
17529;DHT22;8882;53.192;8.184;2023-03-22T07:04:47;10.20;99.90
17529;DHT22;8882;53.192;8.184;2023-03-22T07:07:12;10.30;99.90
17529;DHT22;8882;53.192;8.184;2023-03-22T07:09:38;10.30;99.90
17529;DHT22;8882;53.192;8.184;2023-03-22T07:12:04;10.30;99.90
17529;DHT22;8882;53.192;8.184;2023-03-22T07:14:31;10.30;99.90
17529;DHT22;8882;53.192;8.184;2023-03-22T07:16:57;10.30;99.90
17529;DHT22;8882;53.192;8.184;2023-03-22T07:19:22;10.30;99.90
17529;DHT22;8882;53.192;8.184;2023-03-22T07:21:48;10.30;99.90
17529;DHT22;8882;53.192;8.184;2023-03-22T07:24:13;10.40;99.90
17529;DHT22;8882;53.192;8.184;2023-03-22T07:26:39;10.40;99.90
17529;DHT22;8882;53.192;8.184;2023-03-22T07:29:05;10.40;99.90
17529;DHT22;8882;53.192;8.184;2023-03-22T07:31:31;10.40;99.90
17529;DHT22;8882;53.192;8.184;2023-03-22T07:34:04;10.50;99.90
17529;DHT22;8882;53.192;8.184;2023-03-22T07:36:30;10.50;99.90
17529;DHT22;8882;53.192;8.184;2023-03-22T07:38:55;10.60;99.90
17529;DHT22;8882;53.192;8.184;2023-03-22T07:41:21;10.70;99.90
17529;DHT22;8882;53.192;8.184;2023-03-22T07:43:48;10.70;99.90
17529;DHT22;8882;53.192;8.184;2023-03-22T07:46:14;10.70;99.90
17529;DHT22;8882;53.192;8.184;2023-03-22T07:48:39;10.80;99.90
17529;DHT22;8882;53.192;8.184;2023-03-22T07:51:05;10.80;99.90
17529;DHT22;8882;53.192;8.184;2023-03-22T07:53:31;10.80;99.90
17529;DHT22;8882;53.192;8.184;2023-03-22T07:55:56;10.80;99.90
17529;DHT22;8882;53.192;8.184;2023-03-22T07:58:22;10.80;99.90
17529;DHT22;8882;53.192;8.184;2023-03-22T08:00:47;10.90;99.90
17529;DHT22;8882;53.192;8.184;2023-03-22T08:03:14;10.90;99.90
17529;DHT22;8882;53.192;8.184;2023-03-22T08:05:40;10.90;99.90
17529;DHT22;8882;53.192;8.184;2023-03-22T08:08:06;11.00;99.90
17529;DHT22;8882;53.192;8.184;2023-03-22T08:10:32;11.00;99.90
17529;DHT22;8882;53.192;8.184;2023-03-22T08:12:57;11.00;99.90
17529;DHT22;8882;53.192;8.184;2023-03-22T08:15:23;11.00;99.90
17529;DHT22;8882;53.192;8.184;2023-03-22T08:17:48;11.10;99.90
17529;DHT22;8882;53.192;8.184;2023-03-22T08:20:14;11.10;99.90
17529;DHT22;8882;53.192;8.184;2023-03-22T08:22:43;11.20;99.90
17529;DHT22;8882;53.192;8.184;2023-03-22T08:25:09;11.30;99.90
17529;DHT22;8882;53.192;8.184;2023-03-22T08:27:34;11.40;99.90
17529;DHT22;8882;53.192;8.184;2023-03-22T08:30:00;11.30;99.90
17529;DHT22;8882;53.192;8.184;2023-03-22T08:32:26;11.40;99.90
17529;DHT22;8882;53.192;8.184;2023-03-22T08:34:52;11.40;99.90
17529;DHT22;8882;53.192;8.184;2023-03-22T08:37:17;11.50;99.90
17529;DHT22;8882;53.192;8.184;2023-03-22T08:39:44;11.50;99.90
17529;DHT22;8882;53.192;8.184;2023-03-22T08:42:10;11.50;99.90
17529;DHT22;8882;53.192;8.184;2023-03-22T08:44:36;11.40;99.90
17529;DHT22;8882;53.192;8.184;2023-03-22T08:47:01;11.40;99.90
17529;DHT22;8882;53.192;8.184;2023-03-22T08:49:27;11.40;99.90
17529;DHT22;8882;53.192;8.184;2023-03-22T08:51:53;11.40;99.90
17529;DHT22;8882;53.192;8.184;2023-03-22T08:54:18;11.40;99.90
17529;DHT22;8882;53.192;8.184;2023-03-22T08:56:44;11.40;99.90
17529;DHT22;8882;53.192;8.184;2023-03-22T08:59:09;11.40;99.90
17529;DHT22;8882;53.192;8.184;2023-03-22T09:01:36;11.50;99.90
17529;DHT22;8882;53.192;8.184;2023-03-22T09:04:02;11.50;99.90
17529;DHT22;8882;53.192;8.184;2023-03-22T09:06:28;11.60;99.90
17529;DHT22;8882;53.192;8.184;2023-03-22T09:08:54;11.70;99.90
17529;DHT22;8882;53.192;8.184;2023-03-22T09:11:20;11.80;99.90
17529;DHT22;8882;53.192;8.184;2023-03-22T09:13:49;11.80;99.90
17529;DHT22;8882;53.192;8.184;2023-03-22T09:16:15;11.80;99.90
17529;DHT22;8882;53.192;8.184;2023-03-22T09:18:41;11.80;99.90
17529;DHT22;8882;53.192;8.184;2023-03-22T09:21:08;11.80;99.90
17529;DHT22;8882;53.192;8.184;2023-03-22T09:23:35;11.80;99.90
17529;DHT22;8882;53.192;8.184;2023-03-22T09:26:04;11.90;99.90
17529;DHT22;8882;53.192;8.184;2023-03-22T09:28:30;11.90;99.90
17529;DHT22;8882;53.192;8.184;2023-03-22T09:31:03;12.00;99.90
17529;DHT22;8882;53.192;8.184;2023-03-22T09:33:29;12.00;99.90
17529;DHT22;8882;53.192;8.184;2023-03-22T09:35:55;12.00;99.90
17529;DHT22;8882;53.192;8.184;2023-03-22T09:38:21;12.00;99.90
17529;DHT22;8882;53.192;8.184;2023-03-22T09:40:56;11.90;99.90
17529;DHT22;8882;53.192;8.184;2023-03-22T09:43:36;11.90;99.90
17529;DHT22;8882;53.192;8.184;2023-03-22T09:46:04;11.90;99.90
17529;DHT22;8882;53.192;8.184;2023-03-22T09:48:33;11.90;99.90
17529;DHT22;8882;53.192;8.184;2023-03-22T09:51:01;12.00;99.90
17529;DHT22;8882;53.192;8.184;2023-03-22T09:53:28;12.00;99.90
17529;DHT22;8882;53.192;8.184;2023-03-22T09:56:01;12.10;99.90
17529;DHT22;8882;53.192;8.184;2023-03-22T09:59:06;12.10;99.90
17529;DHT22;8882;53.192;8.184;2023-03-22T10:01:54;12.10;99.90
17529;DHT22;8882;53.192;8.184;2023-03-22T10:04:41;12.20;99.90
17529;DHT22;8882;53.192;8.184;2023-03-22T10:07:22;12.20;99.90
17529;DHT22;8882;53.192;8.184;2023-03-22T10:10:07;12.20;99.90
17529;DHT22;8882;53.192;8.184;2023-03-22T10:12:45;12.20;99.90
17529;DHT22;8882;53.192;8.184;2023-03-22T10:15:17;12.20;99.90
17529;DHT22;8882;53.192;8.184;2023-03-22T10:17:49;12.30;99.90
17529;DHT22;8882;53.192;8.184;2023-03-22T10:20:49;12.40;99.90
17529;DHT22;8882;53.192;8.184;2023-03-22T10:23:34;12.30;99.90
17529;DHT22;8882;53.192;8.184;2023-03-22T10:26:02;12.40;99.90
17529;DHT22;8882;53.192;8.184;2023-03-22T10:28:40;12.60;99.90
17529;DHT22;8882;53.192;8.184;2023-03-22T10:31:12;12.70;99.90
17529;DHT22;8882;53.192;8.184;2023-03-22T10:33:45;12.60;99.90
17529;DHT22;8882;53.192;8.184;2023-03-22T10:36:19;12.60;99.90
17529;DHT22;8882;53.192;8.184;2023-03-22T10:38:51;12.70;99.90
17529;DHT22;8882;53.192;8.184;2023-03-22T10:41:19;12.70;99.90
17529;DHT22;8882;53.192;8.184;2023-03-22T10:43:50;12.80;99.90
17529;DHT22;8882;53.192;8.184;2023-03-22T10:46:22;12.90;99.90
17529;DHT22;8882;53.192;8.184;2023-03-22T10:48:51;12.90;99.90
17529;DHT22;8882;53.192;8.184;2023-03-22T10:51:34;13.00;99.90
17529;DHT22;8882;53.192;8.184;2023-03-22T10:54:03;13.10;99.90
17529;DHT22;8882;53.192;8.184;2023-03-22T10:56:30;13.00;99.90
17529;DHT22;8882;53.192;8.184;2023-03-22T10:58:55;13.10;99.90
17529;DHT22;8882;53.192;8.184;2023-03-22T11:01:35;13.20;99.90
17529;DHT22;8882;53.192;8.184;2023-03-22T11:04:08;13.20;99.90
17529;DHT22;8882;53.192;8.184;2023-03-22T11:06:39;13.20;99.90
17529;DHT22;8882;53.192;8.184;2023-03-22T11:09:19;13.10;99.90
17529;DHT22;8882;53.192;8.184;2023-03-22T11:11:52;13.00;99.90
17529;DHT22;8882;53.192;8.184;2023-03-22T11:17:18;13.00;99.90
17529;DHT22;8882;53.192;8.184;2023-03-22T11:19:57;13.00;99.90
17529;DHT22;8882;53.192;8.184;2023-03-22T11:22:38;13.00;99.90
17529;DHT22;8882;53.192;8.184;2023-03-22T11:25:26;13.00;99.90
17529;DHT22;8882;53.192;8.184;2023-03-22T11:27:56;12.90;99.90
17529;DHT22;8882;53.192;8.184;2023-03-22T11:30:27;12.70;99.90
17529;DHT22;8882;53.192;8.184;2023-03-22T11:33:20;12.70;99.90
17529;DHT22;8882;53.192;8.184;2023-03-22T11:35:52;12.60;99.90
17529;DHT22;8882;53.192;8.184;2023-03-22T11:38:34;12.60;99.90
17529;DHT22;8882;53.192;8.184;2023-03-22T11:41:03;12.50;99.90
17529;DHT22;8882;53.192;8.184;2023-03-22T11:43:33;12.50;99.90
17529;DHT22;8882;53.192;8.184;2023-03-22T11:46:00;12.40;99.90
17529;DHT22;8882;53.192;8.184;2023-03-22T11:48:28;12.30;99.90
17529;DHT22;8882;53.192;8.184;2023-03-22T11:51:45;12.10;99.90
17529;DHT22;8882;53.192;8.184;2023-03-22T11:53:55;12.00;99.90
17529;DHT22;8882;53.192;8.184;2023-03-22T11:56:28;11.80;99.90
17529;DHT22;8882;53.192;8.184;2023-03-22T11:59:15;11.80;99.90
17529;DHT22;8882;53.192;8.184;2023-03-22T12:01:51;11.70;99.90
17529;DHT22;8882;53.192;8.184;2023-03-22T12:04:24;11.60;99.90
17529;DHT22;8882;53.192;8.184;2023-03-22T12:06:54;11.60;99.90
17529;DHT22;8882;53.192;8.184;2023-03-22T12:09:45;11.50;99.90
17529;DHT22;8882;53.192;8.184;2023-03-22T12:12:13;11.50;99.90
17529;DHT22;8882;53.192;8.184;2023-03-22T12:14:53;11.50;99.90
17529;DHT22;8882;53.192;8.184;2023-03-22T12:20:15;11.50;99.90
17529;DHT22;8882;53.192;8.184;2023-03-22T12:22:47;11.50;99.90
17529;DHT22;8882;53.192;8.184;2023-03-22T12:25:19;11.50;99.90
17529;DHT22;8882;53.192;8.184;2023-03-22T12:27:53;11.40;99.90
17529;DHT22;8882;53.192;8.184;2023-03-22T12:30:29;11.50;99.90
17529;DHT22;8882;53.192;8.184;2023-03-22T12:33:45;11.50;99.90
17529;DHT22;8882;53.192;8.184;2023-03-22T12:35:45;11.50;99.90
17529;DHT22;8882;53.192;8.184;2023-03-22T12:40:46;11.50;99.90
17529;DHT22;8882;53.192;8.184;2023-03-22T12:43:51;11.60;99.90
17529;DHT22;8882;53.192;8.184;2023-03-22T12:46:46;11.60;99.90
17529;DHT22;8882;53.192;8.184;2023-03-22T12:51:48;11.80;99.90
17529;DHT22;8882;53.192;8.184;2023-03-22T12:54:18;11.80;99.90
17529;DHT22;8882;53.192;8.184;2023-03-22T12:56:45;11.80;99.90
17529;DHT22;8882;53.192;8.184;2023-03-22T12:59:23;11.80;99.90
17529;DHT22;8882;53.192;8.184;2023-03-22T13:02:13;11.90;99.90
17529;DHT22;8882;53.192;8.184;2023-03-22T13:09:40;11.80;99.90
17529;DHT22;8882;53.192;8.184;2023-03-22T13:17:39;11.80;99.90
17529;DHT22;8882;53.192;8.184;2023-03-22T13:30:25;11.70;99.90
17529;DHT22;8882;53.192;8.184;2023-03-22T13:32:58;11.70;99.90
17529;DHT22;8882;53.192;8.184;2023-03-22T13:35:48;11.70;99.90
17529;DHT22;8882;53.192;8.184;2023-03-22T13:38:32;11.60;99.90
17529;DHT22;8882;53.192;8.184;2023-03-22T13:41:05;11.40;99.90
17529;DHT22;8882;53.192;8.184;2023-03-22T13:48:52;11.20;99.90
17529;DHT22;8882;53.192;8.184;2023-03-22T13:59:31;10.80;99.90
17529;DHT22;8882;53.192;8.184;2023-03-22T14:02:27;10.80;99.90
17529;DHT22;8882;53.192;8.184;2023-03-22T14:05:03;10.80;99.90
17529;DHT22;8882;53.192;8.184;2023-03-22T14:07:41;10.80;99.90
17529;DHT22;8882;53.192;8.184;2023-03-22T14:10:19;10.80;99.90
17529;DHT22;8882;53.192;8.184;2023-03-22T14:13:01;10.80;99.90
17529;DHT22;8882;53.192;8.184;2023-03-22T14:15:34;10.80;99.90
17529;DHT22;8882;53.192;8.184;2023-03-22T14:20:41;10.90;99.90
17529;DHT22;8882;53.192;8.184;2023-03-22T14:23:16;10.90;99.90
17529;DHT22;8882;53.192;8.184;2023-03-22T14:25:46;11.00;99.90
17529;DHT22;8882;53.192;8.184;2023-03-22T14:28:20;11.00;99.90
17529;DHT22;8882;53.192;8.184;2023-03-22T14:30:46;10.90;99.90
17529;DHT22;8882;53.192;8.184;2023-03-22T14:33:18;10.90;99.90
17529;DHT22;8882;53.192;8.184;2023-03-22T14:35:57;10.90;99.90
17529;DHT22;8882;53.192;8.184;2023-03-22T14:38:29;10.80;99.90
17529;DHT22;8882;53.192;8.184;2023-03-22T14:41:23;10.70;99.90
17529;DHT22;8882;53.192;8.184;2023-03-22T14:43:56;10.70;99.90
17529;DHT22;8882;53.192;8.184;2023-03-22T14:46:25;10.60;99.90
17529;DHT22;8882;53.192;8.184;2023-03-22T14:48:57;10.60;99.90
17529;DHT22;8882;53.192;8.184;2023-03-22T14:51:29;10.50;99.90
17529;DHT22;8882;53.192;8.184;2023-03-22T14:53:56;10.50;99.90
17529;DHT22;8882;53.192;8.184;2023-03-22T14:56:27;10.50;99.90
17529;DHT22;8882;53.192;8.184;2023-03-22T14:58:56;10.50;99.90
17529;DHT22;8882;53.192;8.184;2023-03-22T15:01:27;10.40;99.90
17529;DHT22;8882;53.192;8.184;2023-03-22T15:03:56;10.50;99.90
17529;DHT22;8882;53.192;8.184;2023-03-22T15:06:25;10.40;99.90
17529;DHT22;8882;53.192;8.184;2023-03-22T15:08:51;10.40;99.90
17529;DHT22;8882;53.192;8.184;2023-03-22T15:11:16;10.40;99.90
17529;DHT22;8882;53.192;8.184;2023-03-22T15:13:45;10.40;99.90
17529;DHT22;8882;53.192;8.184;2023-03-22T15:16:17;10.30;99.90
17529;DHT22;8882;53.192;8.184;2023-03-22T15:18:45;10.30;99.90
17529;DHT22;8882;53.192;8.184;2023-03-22T15:21:11;10.30;99.90
17529;DHT22;8882;53.192;8.184;2023-03-22T15:23:39;10.30;99.90
17529;DHT22;8882;53.192;8.184;2023-03-22T15:26:16;10.30;99.90
17529;DHT22;8882;53.192;8.184;2023-03-22T15:28:57;10.30;99.90
17529;DHT22;8882;53.192;8.184;2023-03-22T15:31:25;10.30;99.90
17529;DHT22;8882;53.192;8.184;2023-03-22T15:33:53;10.30;99.90
17529;DHT22;8882;53.192;8.184;2023-03-22T15:36:19;10.40;99.90
17529;DHT22;8882;53.192;8.184;2023-03-22T15:38:46;10.40;99.90
17529;DHT22;8882;53.192;8.184;2023-03-22T15:43:44;10.40;99.90
17529;DHT22;8882;53.192;8.184;2023-03-22T15:46:14;10.50;99.90
17529;DHT22;8882;53.192;8.184;2023-03-22T15:48:58;10.50;99.90
17529;DHT22;8882;53.192;8.184;2023-03-22T15:51:32;10.60;99.90
17529;DHT22;8882;53.192;8.184;2023-03-22T15:54:03;10.60;99.90
17529;DHT22;8882;53.192;8.184;2023-03-22T15:56:31;10.70;99.90
17529;DHT22;8882;53.192;8.184;2023-03-22T15:59:00;10.70;99.90
17529;DHT22;8882;53.192;8.184;2023-03-22T16:01:27;10.70;99.90
17529;DHT22;8882;53.192;8.184;2023-03-22T16:04:08;10.70;99.90
17529;DHT22;8882;53.192;8.184;2023-03-22T16:06:33;10.70;99.90
17529;DHT22;8882;53.192;8.184;2023-03-22T16:08:59;10.70;99.90
17529;DHT22;8882;53.192;8.184;2023-03-22T16:11:27;10.70;99.90
17529;DHT22;8882;53.192;8.184;2023-03-22T16:13:53;10.70;99.90
17529;DHT22;8882;53.192;8.184;2023-03-22T16:16:22;10.70;99.90
17529;DHT22;8882;53.192;8.184;2023-03-22T16:18:49;10.70;99.90
17529;DHT22;8882;53.192;8.184;2023-03-22T16:21:16;10.80;99.90
17529;DHT22;8882;53.192;8.184;2023-03-22T16:23:42;10.80;99.90
17529;DHT22;8882;53.192;8.184;2023-03-22T16:26:16;10.80;99.90
17529;DHT22;8882;53.192;8.184;2023-03-22T16:28:42;10.80;99.90
17529;DHT22;8882;53.192;8.184;2023-03-22T16:31:13;10.80;99.90
17529;DHT22;8882;53.192;8.184;2023-03-22T16:33:40;10.80;99.90
17529;DHT22;8882;53.192;8.184;2023-03-22T16:36:08;10.80;99.90
17529;DHT22;8882;53.192;8.184;2023-03-22T16:38:34;10.80;99.90
17529;DHT22;8882;53.192;8.184;2023-03-22T16:41:00;10.80;99.90
17529;DHT22;8882;53.192;8.184;2023-03-22T16:43:26;10.80;99.90
17529;DHT22;8882;53.192;8.184;2023-03-22T16:45:52;10.80;99.90
17529;DHT22;8882;53.192;8.184;2023-03-22T16:48:17;10.80;99.90
17529;DHT22;8882;53.192;8.184;2023-03-22T16:50:44;10.80;99.90
17529;DHT22;8882;53.192;8.184;2023-03-22T16:53:16;10.80;99.90
17529;DHT22;8882;53.192;8.184;2023-03-22T16:55:42;10.90;99.90
17529;DHT22;8882;53.192;8.184;2023-03-22T16:58:08;10.90;99.90
17529;DHT22;8882;53.192;8.184;2023-03-22T17:00:34;10.90;99.90
17529;DHT22;8882;53.192;8.184;2023-03-22T17:03:02;10.90;99.90
17529;DHT22;8882;53.192;8.184;2023-03-22T17:05:31;10.90;99.90
17529;DHT22;8882;53.192;8.184;2023-03-22T17:07:57;10.80;99.90
17529;DHT22;8882;53.192;8.184;2023-03-22T17:10:25;10.90;99.90
17529;DHT22;8882;53.192;8.184;2023-03-22T17:12:51;10.90;99.90
17529;DHT22;8882;53.192;8.184;2023-03-22T17:15:35;10.90;99.90
17529;DHT22;8882;53.192;8.184;2023-03-22T17:18:04;10.90;99.90
17529;DHT22;8882;53.192;8.184;2023-03-22T17:20:31;10.90;99.90
17529;DHT22;8882;53.192;8.184;2023-03-22T17:22:58;10.90;99.90
17529;DHT22;8882;53.192;8.184;2023-03-22T17:25:27;10.90;99.90
17529;DHT22;8882;53.192;8.184;2023-03-22T17:27:53;11.00;99.90
17529;DHT22;8882;53.192;8.184;2023-03-22T17:30:19;10.90;99.90
17529;DHT22;8882;53.192;8.184;2023-03-22T17:32:45;11.00;99.90
17529;DHT22;8882;53.192;8.184;2023-03-22T17:35:13;11.00;99.90
17529;DHT22;8882;53.192;8.184;2023-03-22T17:37:39;11.00;99.90
17529;DHT22;8882;53.192;8.184;2023-03-22T17:40:09;11.00;99.90
17529;DHT22;8882;53.192;8.184;2023-03-22T17:42:36;11.10;99.90
17529;DHT22;8882;53.192;8.184;2023-03-22T17:45:03;11.10;99.90
17529;DHT22;8882;53.192;8.184;2023-03-22T17:47:29;11.10;99.90
17529;DHT22;8882;53.192;8.184;2023-03-22T17:49:55;11.10;99.90
17529;DHT22;8882;53.192;8.184;2023-03-22T17:52:20;11.10;99.90
17529;DHT22;8882;53.192;8.184;2023-03-22T17:54:46;11.10;99.90
17529;DHT22;8882;53.192;8.184;2023-03-22T17:57:11;11.10;99.90
17529;DHT22;8882;53.192;8.184;2023-03-22T17:59:37;11.10;99.90
17529;DHT22;8882;53.192;8.184;2023-03-22T18:02:03;11.10;99.90
17529;DHT22;8882;53.192;8.184;2023-03-22T18:04:29;11.10;99.90
17529;DHT22;8882;53.192;8.184;2023-03-22T18:06:55;11.10;99.90
17529;DHT22;8882;53.192;8.184;2023-03-22T18:09:21;11.10;99.90
17529;DHT22;8882;53.192;8.184;2023-03-22T18:11:47;11.10;99.90
17529;DHT22;8882;53.192;8.184;2023-03-22T18:14:13;11.10;99.90
17529;DHT22;8882;53.192;8.184;2023-03-22T18:16:38;11.20;99.90
17529;DHT22;8882;53.192;8.184;2023-03-22T18:19:04;11.20;99.90
17529;DHT22;8882;53.192;8.184;2023-03-22T18:21:31;11.10;99.90
17529;DHT22;8882;53.192;8.184;2023-03-22T18:23:58;11.20;99.90
17529;DHT22;8882;53.192;8.184;2023-03-22T18:26:24;11.20;99.90
17529;DHT22;8882;53.192;8.184;2023-03-22T18:28:53;11.20;99.90
17529;DHT22;8882;53.192;8.184;2023-03-22T18:31:19;11.20;99.90
17529;DHT22;8882;53.192;8.184;2023-03-22T18:33:45;11.20;99.90
17529;DHT22;8882;53.192;8.184;2023-03-22T18:36:11;11.20;99.90
17529;DHT22;8882;53.192;8.184;2023-03-22T18:38:37;11.20;99.90
17529;DHT22;8882;53.192;8.184;2023-03-22T18:41:08;11.20;99.90
17529;DHT22;8882;53.192;8.184;2023-03-22T18:43:36;11.20;99.90
17529;DHT22;8882;53.192;8.184;2023-03-22T18:46:13;11.20;99.90
17529;DHT22;8882;53.192;8.184;2023-03-22T18:48:39;11.20;99.90
17529;DHT22;8882;53.192;8.184;2023-03-22T18:51:08;11.20;99.90
17529;DHT22;8882;53.192;8.184;2023-03-22T18:53:35;11.20;99.90
17529;DHT22;8882;53.192;8.184;2023-03-22T18:56:02;11.20;99.90
17529;DHT22;8882;53.192;8.184;2023-03-22T18:58:28;11.20;99.90
17529;DHT22;8882;53.192;8.184;2023-03-22T19:00:54;11.20;99.90
17529;DHT22;8882;53.192;8.184;2023-03-22T19:03:20;11.10;99.90
17529;DHT22;8882;53.192;8.184;2023-03-22T19:05:46;11.00;99.90
17529;DHT22;8882;53.192;8.184;2023-03-22T19:08:12;10.90;99.90
17529;DHT22;8882;53.192;8.184;2023-03-22T19:10:37;10.80;99.90
17529;DHT22;8882;53.192;8.184;2023-03-22T19:13:05;10.80;99.90
17529;DHT22;8882;53.192;8.184;2023-03-22T19:15:31;10.80;99.90
17529;DHT22;8882;53.192;8.184;2023-03-22T19:17:56;10.70;99.90
17529;DHT22;8882;53.192;8.184;2023-03-22T19:20:22;10.60;99.90
17529;DHT22;8882;53.192;8.184;2023-03-22T19:22:47;10.60;99.90
17529;DHT22;8882;53.192;8.184;2023-03-22T19:25:13;10.50;99.90
17529;DHT22;8882;53.192;8.184;2023-03-22T19:27:38;10.50;99.90
17529;DHT22;8882;53.192;8.184;2023-03-22T19:30:05;10.50;99.90
17529;DHT22;8882;53.192;8.184;2023-03-22T19:32:31;10.50;99.90
17529;DHT22;8882;53.192;8.184;2023-03-22T19:34:57;10.40;99.90
17529;DHT22;8882;53.192;8.184;2023-03-22T19:37:22;10.40;99.90
17529;DHT22;8882;53.192;8.184;2023-03-22T19:39:48;10.40;99.90
17529;DHT22;8882;53.192;8.184;2023-03-22T19:42:14;10.40;99.90
17529;DHT22;8882;53.192;8.184;2023-03-22T19:44:40;10.40;99.90
17529;DHT22;8882;53.192;8.184;2023-03-22T19:47:06;10.30;99.90
17529;DHT22;8882;53.192;8.184;2023-03-22T19:49:31;10.30;99.90
17529;DHT22;8882;53.192;8.184;2023-03-22T19:52:00;10.30;99.90
17529;DHT22;8882;53.192;8.184;2023-03-22T19:54:27;10.30;99.90
17529;DHT22;8882;53.192;8.184;2023-03-22T19:56:53;10.30;99.90
17529;DHT22;8882;53.192;8.184;2023-03-22T19:59:18;10.20;99.90
17529;DHT22;8882;53.192;8.184;2023-03-22T20:01:44;10.20;99.90
17529;DHT22;8882;53.192;8.184;2023-03-22T20:04:10;10.20;99.90
17529;DHT22;8882;53.192;8.184;2023-03-22T20:06:35;10.20;99.90
17529;DHT22;8882;53.192;8.184;2023-03-22T20:09:02;10.20;99.90
17529;DHT22;8882;53.192;8.184;2023-03-22T20:11:30;10.20;99.90
17529;DHT22;8882;53.192;8.184;2023-03-22T20:13:56;10.20;99.90
17529;DHT22;8882;53.192;8.184;2023-03-22T20:16:24;10.20;99.90
17529;DHT22;8882;53.192;8.184;2023-03-22T20:18:50;10.20;99.90
17529;DHT22;8882;53.192;8.184;2023-03-22T20:21:15;10.20;99.90
17529;DHT22;8882;53.192;8.184;2023-03-22T20:23:41;10.20;99.90
17529;DHT22;8882;53.192;8.184;2023-03-22T20:26:06;10.20;99.90
17529;DHT22;8882;53.192;8.184;2023-03-22T20:28:33;10.20;99.90
17529;DHT22;8882;53.192;8.184;2023-03-22T20:31:10;10.20;99.90
17529;DHT22;8882;53.192;8.184;2023-03-22T20:33:36;10.20;99.90
17529;DHT22;8882;53.192;8.184;2023-03-22T20:36:02;10.20;99.90
17529;DHT22;8882;53.192;8.184;2023-03-22T20:38:27;10.20;99.90
17529;DHT22;8882;53.192;8.184;2023-03-22T20:40:53;10.20;99.90
17529;DHT22;8882;53.192;8.184;2023-03-22T20:43:19;10.20;99.90
17529;DHT22;8882;53.192;8.184;2023-03-22T20:45:48;10.20;99.90
17529;DHT22;8882;53.192;8.184;2023-03-22T20:48:14;10.20;99.90
17529;DHT22;8882;53.192;8.184;2023-03-22T20:50:42;10.20;99.90
17529;DHT22;8882;53.192;8.184;2023-03-22T20:53:11;10.20;99.90
17529;DHT22;8882;53.192;8.184;2023-03-22T20:55:37;10.20;99.90
17529;DHT22;8882;53.192;8.184;2023-03-22T20:58:02;10.20;99.90
17529;DHT22;8882;53.192;8.184;2023-03-22T21:00:28;10.20;99.90
17529;DHT22;8882;53.192;8.184;2023-03-22T21:02:54;10.20;99.90
17529;DHT22;8882;53.192;8.184;2023-03-22T21:05:20;10.30;99.90
17529;DHT22;8882;53.192;8.184;2023-03-22T21:07:47;10.30;99.90
17529;DHT22;8882;53.192;8.184;2023-03-22T21:10:14;10.30;99.90
17529;DHT22;8882;53.192;8.184;2023-03-22T21:12:40;10.30;99.90
17529;DHT22;8882;53.192;8.184;2023-03-22T21:15:07;10.30;99.90
17529;DHT22;8882;53.192;8.184;2023-03-22T21:17:35;10.30;99.90
17529;DHT22;8882;53.192;8.184;2023-03-22T21:20:04;10.30;99.90
17529;DHT22;8882;53.192;8.184;2023-03-22T21:22:31;10.30;99.90
17529;DHT22;8882;53.192;8.184;2023-03-22T21:24:57;10.30;99.90
17529;DHT22;8882;53.192;8.184;2023-03-22T21:27:22;10.30;99.90
17529;DHT22;8882;53.192;8.184;2023-03-22T21:29:51;10.30;99.90
17529;DHT22;8882;53.192;8.184;2023-03-22T21:32:17;10.30;99.90
17529;DHT22;8882;53.192;8.184;2023-03-22T21:34:43;10.30;99.90
17529;DHT22;8882;53.192;8.184;2023-03-22T21:37:09;10.40;99.90
17529;DHT22;8882;53.192;8.184;2023-03-22T21:39:34;10.40;99.90
17529;DHT22;8882;53.192;8.184;2023-03-22T21:42:01;10.40;99.90
17529;DHT22;8882;53.192;8.184;2023-03-22T21:44:32;10.40;99.90
17529;DHT22;8882;53.192;8.184;2023-03-22T21:46:58;10.40;99.90
17529;DHT22;8882;53.192;8.184;2023-03-22T21:49:28;10.30;99.90
17529;DHT22;8882;53.192;8.184;2023-03-22T21:51:56;10.30;99.90
17529;DHT22;8882;53.192;8.184;2023-03-22T21:54:26;10.30;99.90
17529;DHT22;8882;53.192;8.184;2023-03-22T21:56:55;10.30;99.90
17529;DHT22;8882;53.192;8.184;2023-03-22T21:59:21;10.30;99.90
